createdAt,value
2023-03-12T00:03:15.212Z,-0.56
2023-03-12T00:09:10.975Z,-0.53
2023-03-12T00:11:56.196Z,-0.53
2023-03-12T00:14:41.253Z,-0.55
2023-03-12T00:20:19.399Z,-0.58
2023-03-12T00:23:05.551Z,-0.61
2023-03-12T00:25:50.765Z,-0.63
2023-03-12T00:28:37.101Z,-0.67
2023-03-12T00:31:32.376Z,-0.66
2023-03-12T00:40:49.340Z,-0.56
2023-03-12T00:43:35.359Z,-0.56
2023-03-12T00:46:21.599Z,-0.55
2023-03-12T00:49:06.857Z,-0.56
2023-03-12T00:55:08.790Z,-0.60
2023-03-12T00:58:26.748Z,-0.63
2023-03-12T01:01:12.437Z,-0.68
2023-03-12T01:13:44.877Z,-0.68
2023-03-12T01:16:32.881Z,-0.68
2023-03-12T01:19:18.585Z,-0.59
2023-03-12T01:22:04.342Z,-0.57
2023-03-12T01:24:49.877Z,-0.57
2023-03-12T01:27:35.595Z,-0.58
2023-03-12T01:30:20.672Z,-0.61
2023-03-12T01:33:05.866Z,-0.62
2023-03-12T01:35:51.149Z,-0.66
2023-03-12T01:38:36.440Z,-0.68
2023-03-12T01:41:24.517Z,-0.72
2023-03-12T01:44:14.020Z,-0.76
2023-03-12T01:46:59.354Z,-0.80
2023-03-12T01:53:12.502Z,-0.77
2023-03-12T01:56:00.647Z,-0.74
2023-03-12T01:58:54.182Z,-0.73
2023-03-12T02:01:41.167Z,-0.75
2023-03-12T02:04:28.493Z,-0.76
2023-03-12T02:07:15.973Z,-0.77
2023-03-12T02:10:03.233Z,-0.79
2023-03-12T02:12:48.156Z,-0.82
2023-03-12T02:28:02.629Z,-0.71
2023-03-12T02:30:50.969Z,-0.68
2023-03-12T02:33:36.276Z,-0.65
2023-03-12T02:46:09.154Z,-0.66
2023-03-12T02:58:40.235Z,-0.74
2023-03-12T03:01:27.717Z,-0.80
2023-03-12T03:04:13.254Z,-0.72
2023-03-12T03:10:40.172Z,-0.61
2023-03-12T03:16:47.996Z,-0.52
2023-03-12T03:29:17.379Z,-0.59
2023-03-12T03:34:55.191Z,-0.60
2023-03-12T03:37:40.740Z,-0.63
2023-03-12T03:40:25.860Z,-0.64
2023-03-12T03:46:20.240Z,-0.68
2023-03-12T04:05:05.854Z,-0.51
2023-03-12T04:07:54.565Z,-0.53
2023-03-12T04:13:33.534Z,-0.55
2023-03-12T04:28:56.647Z,-0.65
2023-03-12T04:38:13.817Z,-0.57
2023-03-12T04:43:51.635Z,-0.39
2023-03-12T04:46:37.069Z,-0.33
2023-03-12T04:49:22.345Z,-0.30
2023-03-12T04:58:27.868Z,-0.29
2023-03-12T05:01:23.295Z,-0.32
2023-03-12T05:04:08.774Z,-0.35
2023-03-12T05:09:33.112Z,-0.41
2023-03-12T05:22:18.271Z,-0.45
2023-03-12T05:28:12.210Z,-0.47
2023-03-12T05:30:59.554Z,-0.49
2023-03-12T05:36:41.216Z,-0.35
2023-03-12T05:39:27.218Z,-0.28
2023-03-12T05:55:21.048Z,-0.03
2023-03-12T05:58:07.618Z,-0.01
2023-03-12T06:00:53.035Z,0.01
2023-03-12T06:06:20.010Z,0.06
2023-03-12T06:09:06.211Z,0.08
2023-03-12T06:11:51.605Z,0.11
2023-03-12T06:17:31.343Z,0.18
2023-03-12T06:20:42.647Z,0.21
2023-03-12T06:23:27.929Z,0.27
2023-03-12T06:26:22.247Z,0.33
2023-03-12T06:29:07.823Z,0.40
2023-03-12T06:31:53.444Z,0.44
2023-03-12T06:40:59.257Z,0.65
2023-03-12T06:43:45.061Z,0.72
2023-03-12T06:46:30.045Z,0.79
2023-03-12T06:49:14.899Z,0.85
2023-03-12T06:52:26.833Z,0.93
2023-03-12T07:01:10.874Z,1.31
2023-03-12T07:04:52.072Z,1.49
2023-03-12T07:08:03.518Z,1.68
2023-03-12T07:23:02.424Z,2.10
2023-03-12T07:25:48.324Z,2.18
2023-03-12T07:28:33.652Z,2.30
2023-03-12T07:31:19.158Z,2.47
2023-03-12T07:34:30.298Z,2.65
2023-03-12T07:43:13.322Z,3.11
2023-03-12T07:49:26.363Z,3.36
2023-03-12T07:52:15.407Z,3.54
2023-03-12T07:55:32.569Z,3.71
2023-03-12T07:58:19.776Z,3.94
2023-03-12T08:01:06.134Z,4.09
2023-03-12T08:03:53.663Z,4.21
2023-03-12T08:06:42.123Z,4.27
2023-03-12T08:09:27.870Z,4.31
2023-03-12T08:12:12.717Z,4.37
2023-03-12T08:14:57.863Z,4.48
2023-03-12T08:17:43.200Z,4.57
2023-03-12T08:20:28.744Z,4.67
2023-03-12T08:26:27.455Z,4.87
2023-03-12T08:32:04.140Z,4.98
2023-03-12T08:34:52.048Z,5.02
2023-03-12T08:50:16.445Z,5.31
2023-03-12T08:53:01.422Z,5.34
2023-03-12T09:02:46.844Z,5.45
2023-03-12T09:05:32.172Z,5.55
2023-03-12T09:11:18.355Z,5.83
2023-03-12T09:20:25.585Z,6.40
2023-03-12T09:26:20.292Z,6.83
2023-03-12T09:32:06.951Z,7.21
2023-03-12T09:37:53.843Z,8.41
2023-03-12T09:46:58.292Z,11.06
2023-03-12T09:49:51.057Z,11.00
2023-03-12T09:52:59.240Z,10.98
2023-03-12T09:59:04.057Z,10.91
2023-03-12T10:02:06.077Z,10.97
2023-03-12T10:05:11.283Z,11.06
2023-03-12T10:08:07.605Z,11.04
2023-03-12T10:11:08.364Z,11.07
2023-03-12T10:17:31.842Z,11.07
2023-03-12T10:20:35.451Z,11.03
2023-03-12T10:23:29.691Z,11.08
2023-03-12T10:26:40.787Z,11.19
2023-03-12T10:29:31.816Z,11.40
2023-03-12T10:32:27.440Z,11.53
2023-03-12T10:41:42.389Z,11.95
2023-03-12T10:44:28.890Z,12.01
2023-03-12T10:47:35.248Z,11.90
2023-03-12T10:53:23.925Z,11.86
2023-03-12T10:56:14.880Z,11.82
2023-03-12T10:59:20.040Z,11.70
2023-03-12T11:05:48.417Z,11.67
2023-03-12T11:08:35.741Z,11.74
2023-03-12T11:12:00.707Z,11.91
2023-03-12T11:14:46.304Z,12.02
2023-03-12T11:17:32.471Z,11.75
2023-03-12T11:33:32.845Z,12.11
2023-03-12T11:36:44.433Z,12.25
2023-03-12T11:42:44.330Z,12.55
2023-03-12T11:45:44.690Z,12.60
2023-03-12T11:58:53.420Z,12.61
2023-03-12T12:02:12.407Z,12.48
2023-03-12T12:11:33.974Z,11.69
2023-03-12T12:31:29.664Z,11.50
2023-03-12T12:44:14.358Z,11.21
2023-03-12T12:47:04.851Z,11.08
2023-03-12T12:49:57.594Z,10.96
2023-03-12T13:01:27.995Z,10.73
2023-03-12T13:07:12.033Z,10.80
2023-03-12T13:09:59.648Z,10.89
2023-03-12T13:15:39.596Z,10.98
2023-03-12T13:27:39.101Z,11.21
2023-03-12T13:40:01.531Z,11.13
2023-03-12T13:43:06.803Z,10.95
2023-03-12T13:48:48.547Z,10.16
2023-03-12T13:51:43.579Z,9.92
2023-03-12T13:54:34.254Z,9.78
2023-03-12T13:57:39.619Z,9.60
2023-03-12T14:00:31.045Z,9.23
2023-03-12T14:03:27.247Z,9.05
2023-03-12T14:09:40.652Z,8.65
2023-03-12T14:13:14.265Z,8.43
2023-03-12T14:16:14.667Z,8.41
2023-03-12T14:19:38.627Z,8.38
2023-03-12T14:29:00.323Z,7.93
2023-03-12T14:31:48.039Z,7.83
2023-03-12T14:34:40.746Z,7.74
2023-03-12T14:37:35.880Z,7.62
2023-03-12T14:46:30.454Z,7.24
2023-03-12T14:49:24.789Z,7.14
2023-03-12T14:52:19.917Z,6.99
2023-03-12T14:55:13.450Z,6.94
2023-03-12T14:58:14.984Z,6.90
2023-03-12T15:01:49.092Z,6.83
2023-03-12T15:04:35.354Z,6.67
2023-03-12T15:20:04.855Z,6.29
2023-03-12T15:26:15.431Z,6.14
2023-03-12T15:29:14.681Z,6.12
2023-03-12T15:32:00.532Z,6.10
2023-03-12T15:34:47.447Z,6.06
2023-03-12T15:37:37.551Z,6.01
2023-03-12T15:43:20.442Z,5.80
2023-03-12T15:49:00.733Z,5.62
2023-03-12T15:55:13.525Z,5.45
2023-03-12T15:57:59.293Z,5.35
2023-03-12T16:00:45.293Z,5.28
2023-03-12T16:06:48.561Z,5.16
2023-03-12T16:09:34.241Z,5.12
2023-03-12T16:12:19.484Z,5.07
2023-03-12T16:15:05.349Z,5.02
2023-03-12T16:17:50.643Z,4.98
2023-03-12T16:20:35.436Z,4.92
2023-03-12T16:23:20.442Z,4.90
2023-03-12T16:26:06.492Z,4.89
2023-03-12T16:28:51.887Z,4.88
2023-03-12T16:31:37.313Z,4.86
2023-03-12T16:34:22.964Z,4.85
2023-03-12T16:43:34.960Z,4.79
2023-03-12T16:46:21.550Z,4.77
2023-03-12T16:49:55.636Z,4.75
2023-03-12T17:01:25.358Z,4.47
2023-03-12T17:04:11.418Z,4.41
2023-03-12T17:06:56.692Z,4.40
2023-03-12T17:12:38.322Z,4.39
2023-03-12T17:15:33.354Z,4.30
2023-03-12T17:18:19.311Z,4.36
2023-03-12T17:31:28.572Z,4.36
2023-03-12T17:34:15.811Z,4.36
2023-03-12T17:37:04.618Z,4.35
2023-03-12T17:39:49.646Z,4.33
2023-03-12T17:42:35.084Z,4.33
2023-03-12T17:45:20.595Z,4.32
2023-03-12T17:51:21.754Z,4.33
2023-03-12T17:54:09.332Z,4.33
2023-03-12T17:56:55.048Z,4.32
2023-03-12T18:02:44.973Z,4.33
2023-03-12T18:05:29.973Z,4.30
2023-03-12T18:11:13.020Z,4.27
2023-03-12T18:13:58.708Z,4.27
2023-03-12T18:16:44.117Z,4.28
2023-03-12T18:19:30.016Z,4.28
2023-03-12T18:25:09.130Z,4.27
2023-03-12T18:27:55.814Z,4.26
2023-03-12T18:30:45.175Z,4.25
2023-03-12T18:36:32.600Z,4.28
2023-03-12T18:39:18.235Z,4.30
2023-03-12T18:48:44.066Z,4.35
2023-03-12T18:54:38.824Z,4.36
2023-03-12T18:57:24.307Z,4.37
2023-03-12T19:00:14.481Z,4.39
2023-03-12T19:09:16.714Z,4.43
2023-03-12T19:14:45.041Z,4.40
2023-03-12T19:17:31.754Z,4.36
2023-03-12T19:20:18.304Z,4.41
2023-03-12T19:23:03.970Z,4.40
2023-03-12T19:25:49.405Z,4.38
2023-03-12T19:28:38.415Z,4.38
2023-03-12T19:31:24.659Z,4.36
2023-03-12T19:34:09.527Z,4.34
2023-03-12T19:36:54.597Z,4.33
2023-03-12T19:39:40.003Z,4.31
2023-03-12T19:42:24.904Z,4.30
2023-03-12T19:48:03.537Z,4.30
2023-03-12T19:50:49.077Z,4.29
2023-03-12T19:53:34.598Z,4.27
2023-03-12T19:56:20.445Z,4.25
2023-03-12T20:02:22.280Z,4.16
2023-03-12T20:08:16.736Z,4.11
2023-03-12T20:11:07.991Z,4.09
2023-03-12T20:13:53.179Z,4.09
2023-03-12T20:19:38.696Z,4.05
2023-03-12T20:22:27.022Z,4.05
2023-03-12T20:25:12.273Z,4.05
2023-03-12T20:27:57.927Z,4.03
2023-03-12T20:36:57.560Z,4.06
2023-03-12T20:39:43.447Z,4.13
2023-03-12T20:43:04.739Z,4.21
2023-03-12T20:45:50.883Z,4.32
2023-03-12T20:51:38.397Z,4.35
2023-03-12T20:54:28.393Z,4.31
2023-03-12T20:57:13.537Z,4.38
2023-03-12T20:59:59.465Z,4.38
2023-03-12T21:02:44.881Z,4.39
2023-03-12T21:08:19.256Z,4.37
2023-03-12T21:14:18.832Z,4.39
2023-03-12T21:20:09.726Z,4.36
2023-03-12T21:22:55.170Z,4.40
2023-03-12T21:25:41.501Z,4.44
2023-03-12T21:28:27.554Z,4.49
2023-03-12T21:31:15.149Z,4.50
2023-03-12T21:34:00.495Z,4.54
2023-03-12T21:36:46.038Z,4.56
2023-03-12T21:39:31.034Z,4.57
2023-03-12T21:42:15.882Z,4.57
2023-03-12T21:45:00.872Z,4.56
2023-03-12T21:47:45.817Z,4.56
2023-03-12T21:50:30.767Z,4.55
2023-03-12T21:53:23.584Z,4.54
2023-03-12T21:56:10.195Z,4.59
2023-03-12T21:58:58.227Z,4.65
2023-03-12T22:05:07.654Z,4.70
2023-03-12T22:07:53.897Z,4.71
2023-03-12T22:10:38.939Z,4.70
2023-03-12T22:13:23.911Z,4.69
2023-03-12T22:16:11.580Z,4.67
2023-03-12T22:18:56.924Z,4.65
2023-03-12T22:21:42.446Z,4.63
2023-03-12T22:24:27.807Z,4.67
2023-03-12T22:27:12.966Z,4.72
2023-03-12T22:29:57.914Z,4.75
2023-03-12T22:32:43.075Z,4.75
2023-03-12T22:35:27.963Z,4.72
2023-03-12T22:38:13.134Z,4.70
2023-03-12T22:40:58.457Z,4.66
2023-03-12T22:43:44.821Z,4.64
2023-03-12T22:49:41.323Z,4.64
2023-03-12T22:52:27.637Z,4.70
2023-03-12T22:55:12.944Z,4.73
2023-03-12T22:57:58.403Z,4.76
2023-03-12T23:00:43.730Z,4.80
2023-03-12T23:03:30.915Z,4.83
2023-03-12T23:09:19.032Z,4.86
2023-03-12T23:15:38.827Z,4.95
2023-03-12T23:18:25.951Z,5.00
2023-03-12T23:21:15.698Z,5.05
2023-03-12T23:30:31.358Z,5.13
2023-03-12T23:33:16.433Z,5.13
2023-03-12T23:36:14.354Z,5.15
2023-03-12T23:39:00.031Z,5.22
2023-03-12T23:41:45.531Z,5.31
2023-03-12T23:44:32.610Z,5.35
2023-03-12T23:47:18.752Z,5.37
2023-03-12T23:50:04.790Z,5.42
2023-03-12T23:58:54.721Z,5.48
